Time;durP1;ratioP1;P1;durP2;ratioP2;P2;SDS_P1;SDS_P2;PMS_P1;PMS_P2;Temp;Humidity;BMP_temperature;BMP_pressure;BME280_temperature;BME280_humidity;BME280_pressure;Samples;Min_cycle;Max_cycle;Signal;HPM_P1;HPM_P2
2022/10/04 00:00:30;;;;;;;0.67;0.67;;;;;;;;;;5053158;28;20201;-76
2022/10/04 00:03:01;;;;;;;0.70;0.70;;;;;;;;;;5053198;28;20186;-76
2022/10/04 00:05:29;;;;;;;0.80;0.80;;;;;;;;;;5052998;28;20588;-77
2022/10/04 00:07:59;;;;;;;0.70;0.70;;;;;;;;;;5052435;28;20198;-77
2022/10/04 00:10:31;;;;;;;0.60;0.60;;;;;;;;;;5053346;28;20225;-76
2022/10/04 00:12:59;;;;;;;0.80;0.80;;;;;;;;;;5052930;28;20209;-77
2022/10/04 00:15:29;;;;;;;0.63;0.63;;;;;;;;;;5052688;28;20209;-76
2022/10/04 00:18:19;;;;;;;0.50;0.50;;;;;;;;;;5052578;28;20202;-77
2022/10/04 00:21:03;;;;;;;0.70;0.70;;;;;;;;;;5052897;28;20206;-77
2022/10/04 00:23:47;;;;;;;0.67;0.67;;;;;;;;;;5052819;28;20224;-76
2022/10/04 00:27:06;;;;;;;0.50;0.50;;;;;;;;;;5052599;28;20197;-77
2022/10/04 00:29:35;;;;;;;2.30;0.60;;;;;;;;;;5052088;28;20233;-76
2022/10/04 00:32:27;;;;;;;0.40;0.40;;;;;;;;;;5052768;28;20237;-76
2022/10/04 00:34:54;;;;;;;0.60;0.60;;;;;;;;;;5052316;28;20198;-76
2022/10/04 00:37:22;;;;;;;0.50;0.50;;;;;;;;;;5051874;28;20206;-76
2022/10/04 00:39:58;;;;;;;0.67;0.67;;;;;;;;;;5052093;28;20292;-77
2022/10/04 00:42:47;;;;;;;0.50;0.50;;;;;;;;;;5052465;28;20259;-76
2022/10/04 00:45:28;;;;;;;0.60;0.60;;;;;;;;;;5052371;28;20289;-77
2022/10/04 00:48:00;;;;;;;0.60;0.60;;;;;;;;;;5052390;28;20228;-76
2022/10/04 00:50:31;;;;;;;0.60;0.60;;;;;;;;;;5051945;28;20233;-77
2022/10/04 00:52:59;;;;;;;0.57;0.57;;;;;;;;;;5052345;28;20637;-76
2022/10/04 00:55:32;;;;;;;0.60;0.60;;;;;;;;;;5051621;28;20251;-76
2022/10/04 00:58:02;;;;;;;0.60;0.60;;;;;;;;;;5052006;28;20197;-76
2022/10/04 01:00:30;;;;;;;0.60;0.60;;;;;;;;;;5052187;28;20271;-76
2022/10/04 01:03:00;;;;;;;0.50;0.50;;;;;;;;;;5051760;28;20720;-76
2022/10/04 01:05:30;;;;;;;0.67;0.67;;;;;;;;;;5051861;28;20206;-76
2022/10/04 01:08:02;;;;;;;0.60;0.60;;;;;;;;;;5051974;28;20198;-76
2022/10/04 01:10:32;;;;;;;0.60;0.60;;;;;;;;;;5051276;28;20228;-77
2022/10/04 01:13:05;;;;;;;0.60;0.60;;;;;;;;;;5051801;28;20202;-76
2022/10/04 01:15:37;;;;;;;1.03;1.03;;;;;;;;;;5051683;28;20586;-76
2022/10/04 01:18:13;;;;;;;0.80;0.80;;;;;;;;;;5051934;28;20205;-76
2022/10/04 01:20:49;;;;;;;0.70;0.70;;;;;;;;;;5051755;28;20201;-76
2022/10/04 01:26:41;;;;;;;0.70;0.70;;;;;;;;;;5133879;27;20935;-77
2022/10/04 01:29:13;;;;;;;0.40;0.40;;;;;;;;;;5128536;27;20199;-77
2022/10/04 01:31:42;;;;;;;0.60;0.60;;;;;;;;;;5128841;27;20213;-77
2022/10/04 01:34:09;;;;;;;0.80;0.80;;;;;;;;;;5128686;27;20230;-76
2022/10/04 01:36:36;;;;;;;0.60;0.60;;;;;;;;;;5128382;27;20191;-76
2022/10/04 01:39:04;;;;;;;0.70;0.70;;;;;;;;;;5128587;27;20225;-77
2022/10/04 01:41:39;;;;;;;0.60;0.60;;;;;;;;;;5128621;27;20266;-77
2022/10/04 01:44:09;;;;;;;0.47;0.47;;;;;;;;;;5128223;27;20206;-77
2022/10/04 01:46:37;;;;;;;0.57;0.57;;;;;;;;;;5128518;27;20217;-76
2022/10/04 01:49:06;;;;;;;0.77;0.70;;;;;;;;;;5128608;27;20198;-77
2022/10/04 01:51:37;;;;;;;0.57;0.57;;;;;;;;;;5128724;27;20262;-77
2022/10/04 01:54:06;;;;;;;1.10;1.10;;;;;;;;;;5128129;27;20195;-76
2022/10/04 01:56:40;;;;;;;0.67;0.67;;;;;;;;;;5128407;27;20207;-76
2022/10/04 01:59:14;;;;;;;0.67;0.67;;;;;;;;;;5124192;28;20199;-77
2022/10/04 02:01:47;;;;;;;0.50;0.50;;;;;;;;;;5128545;27;20209;-76
2022/10/04 02:04:17;;;;;;;0.70;0.70;;;;;;;;;;5128085;27;20207;-77
2022/10/04 02:06:45;;;;;;;1.23;0.80;;;;;;;;;;5128029;27;20195;-77
2022/10/04 02:09:14;;;;;;;0.60;0.60;;;;;;;;;;5127744;27;20210;-76
2022/10/04 02:11:43;;;;;;;0.70;0.70;;;;;;;;;;5128251;27;20206;-77
2022/10/04 02:14:16;;;;;;;0.60;0.60;;;;;;;;;;5127746;27;20210;-77
2022/10/04 02:16:43;;;;;;;0.70;0.70;;;;;;;;;;5128053;27;20206;-77
2022/10/04 02:19:11;;;;;;;1.30;1.30;;;;;;;;;;5127526;27;20202;-77
2022/10/04 02:21:38;;;;;;;0.60;0.60;;;;;;;;;;5128187;27;20206;-76
2022/10/04 02:24:06;;;;;;;0.60;0.60;;;;;;;;;;5127745;28;20230;-77
2022/10/04 02:26:33;;;;;;;0.60;0.60;;;;;;;;;;5127521;27;20626;-77
2022/10/04 02:28:59;;;;;;;1.70;0.50;;;;;;;;;;5127509;27;20641;-77
2022/10/04 02:34:12;;;;;;;0.70;0.70;;;;;;;;;;5127474;27;20206;-76
2022/10/04 02:36:39;;;;;;;0.80;0.80;;;;;;;;;;5118963;27;20195;-76
2022/10/04 02:39:09;;;;;;;0.70;0.70;;;;;;;;;;5113368;28;20215;-77
2022/10/04 02:41:39;;;;;;;0.47;0.47;;;;;;;;;;5113712;28;20196;-77
2022/10/04 02:44:13;;;;;;;0.60;0.60;;;;;;;;;;5113673;28;20203;-77
2022/10/04 02:46:44;;;;;;;0.60;0.60;;;;;;;;;;5113778;28;20203;-77
2022/10/04 02:49:17;;;;;;;0.50;0.50;;;;;;;;;;5113494;28;20685;-76
2022/10/04 02:51:46;;;;;;;0.57;0.57;;;;;;;;;;5113606;27;20203;-77
2022/10/04 02:54:18;;;;;;;0.63;0.63;;;;;;;;;;5112635;28;20234;-76
2022/10/04 02:56:45;;;;;;;0.60;0.60;;;;;;;;;;5113379;28;20291;-77
2022/10/04 02:59:16;;;;;;;0.50;0.50;;;;;;;;;;5112976;28;20211;-77
2022/10/04 03:01:49;;;;;;;0.50;0.50;;;;;;;;;;5113879;28;20288;-76
2022/10/04 03:04:17;;;;;;;0.40;0.40;;;;;;;;;;5113270;28;20698;-76
2022/10/04 03:06:45;;;;;;;0.47;0.47;;;;;;;;;;5113115;28;20200;-77
2022/10/04 03:09:13;;;;;;;0.53;0.53;;;;;;;;;;5113242;28;20286;-77
2022/10/04 03:11:41;;;;;;;0.70;0.70;;;;;;;;;;5113180;28;20223;-77
2022/10/04 03:14:12;;;;;;;1.23;1.23;;;;;;;;;;5112806;28;20214;-77
2022/10/04 03:16:41;;;;;;;0.70;0.70;;;;;;;;;;5112993;28;20227;-77
2022/10/04 03:19:10;;;;;;;0.67;0.67;;;;;;;;;;5113366;28;20288;-77
2022/10/04 03:21:37;;;;;;;2.10;1.27;;;;;;;;;;5113173;28;20202;-77
2022/10/04 03:24:06;;;;;;;0.60;0.60;;;;;;;;;;5112559;28;20598;-77
2022/10/04 03:26:36;;;;;;;0.63;0.63;;;;;;;;;;5113076;28;20273;-77
2022/10/04 03:29:08;;;;;;;0.50;0.50;;;;;;;;;;5112933;28;20203;-77
2022/10/04 03:31:37;;;;;;;0.60;0.60;;;;;;;;;;5113154;27;20199;-77
2022/10/04 03:34:04;;;;;;;0.67;0.67;;;;;;;;;;5112398;28;20654;-77
2022/10/04 03:36:34;;;;;;;0.60;0.60;;;;;;;;;;5112441;27;20692;-77
2022/10/04 03:39:07;;;;;;;0.57;0.57;;;;;;;;;;5112407;28;20700;-77
2022/10/04 03:41:38;;;;;;;0.60;0.60;;;;;;;;;;5112800;28;20199;-77
2022/10/04 03:44:07;;;;;;;0.50;0.50;;;;;;;;;;5112494;28;20204;-77
2022/10/04 03:46:34;;;;;;;0.50;0.50;;;;;;;;;;5112579;28;20306;-77
2022/10/04 03:49:01;;;;;;;0.57;0.57;;;;;;;;;;5110631;28;20204;-77
2022/10/04 03:51:28;;;;;;;0.93;0.90;;;;;;;;;;5112826;28;20203;-77
2022/10/04 03:53:57;;;;;;;0.90;0.90;;;;;;;;;;5112464;28;20196;-77
2022/10/04 03:56:27;;;;;;;0.70;0.70;;;;;;;;;;5112240;28;20268;-77
2022/10/04 03:58:54;;;;;;;0.60;0.60;;;;;;;;;;5111802;28;20227;-77
2022/10/04 04:01:30;;;;;;;4.43;0.87;;;;;;;;;;5112130;28;20203;-78
2022/10/04 04:04:02;;;;;;;0.40;0.40;;;;;;;;;;5111980;28;20206;-78
2022/10/04 04:06:35;;;;;;;0.60;0.60;;;;;;;;;;5112038;28;20203;-77
2022/10/04 04:09:05;;;;;;;0.70;0.70;;;;;;;;;;5111992;28;20208;-77
2022/10/04 04:11:32;;;;;;;0.60;0.60;;;;;;;;;;5112251;28;20195;-77
2022/10/04 04:14:03;;;;;;;0.80;0.80;;;;;;;;;;5112027;28;20218;-77
2022/10/04 04:16:30;;;;;;;0.90;0.90;;;;;;;;;;5111519;28;20728;-77
2022/10/04 04:19:00;;;;;;;0.70;0.70;;;;;;;;;;5111764;28;20203;-77
2022/10/04 04:21:27;;;;;;;0.70;0.70;;;;;;;;;;5111809;28;20196;-77
2022/10/04 04:23:56;;;;;;;0.60;0.60;;;;;;;;;;5111722;28;20666;-77
2022/10/04 04:26:28;;;;;;;0.40;0.40;;;;;;;;;;5111307;28;20298;-77
2022/10/04 04:28:57;;;;;;;1.13;0.77;;;;;;;;;;5112081;28;20195;-77
2022/10/04 04:31:25;;;;;;;0.47;0.47;;;;;;;;;;5111841;28;20286;-77
2022/10/04 04:33:58;;;;;;;0.80;0.80;;;;;;;;;;5111554;28;20685;-78
2022/10/04 04:36:25;;;;;;;0.60;0.60;;;;;;;;;;5111255;28;20235;-77
2022/10/04 04:41:38;;;;;;;0.50;0.50;;;;;;;;;;5111605;28;20210;-77
2022/10/04 04:44:18;;;;;;;0.60;0.60;;;;;;;;;;5111315;28;20199;-77
2022/10/04 04:46:45;;;;;;;0.43;0.43;;;;;;;;;;5111086;28;20746;-77
2022/10/04 04:49:14;;;;;;;0.53;0.53;;;;;;;;;;5111035;28;20211;-77
2022/10/04 04:51:48;;;;;;;0.50;0.50;;;;;;;;;;5111027;28;20719;-77
2022/10/04 04:54:15;;;;;;;0.50;0.50;;;;;;;;;;5111457;28;20210;-77
2022/10/04 04:56:44;;;;;;;0.70;0.70;;;;;;;;;;5110839;28;20223;-78
2022/10/04 04:59:12;;;;;;;0.43;0.43;;;;;;;;;;5110941;28;20215;-77
2022/10/04 05:01:43;;;;;;;0.53;0.53;;;;;;;;;;5111253;28;20199;-77
2022/10/04 05:04:17;;;;;;;0.50;0.50;;;;;;;;;;5110663;28;20203;-77
2022/10/04 05:06:45;;;;;;;0.53;0.53;;;;;;;;;;5111331;28;20199;-77
2022/10/04 05:09:23;;;;;;;0.40;0.40;;;;;;;;;;5110676;28;20207;-77
2022/10/04 05:11:52;;;;;;;0.50;0.50;;;;;;;;;;5111358;28;20188;-77
2022/10/04 05:14:20;;;;;;;0.57;0.57;;;;;;;;;;5110563;28;20203;-77
2022/10/04 05:16:49;;;;;;;0.40;0.40;;;;;;;;;;5110882;28;20223;-76
2022/10/04 05:19:20;;;;;;;0.50;0.50;;;;;;;;;;5110858;28;20256;-78
2022/10/04 05:21:47;;;;;;;0.40;0.40;;;;;;;;;;5110907;28;20219;-77
2022/10/04 05:24:21;;;;;;;0.70;0.70;;;;;;;;;;5110905;28;20233;-77
2022/10/04 05:26:51;;;;;;;0.57;0.57;;;;;;;;;;5096694;28;20747;-76
2022/10/04 05:29:21;;;;;;;0.50;0.50;;;;;;;;;;5110471;28;20208;-77
2022/10/04 05:31:53;;;;;;;0.73;0.60;;;;;;;;;;5111343;28;20244;-77
2022/10/04 05:34:23;;;;;;;0.33;0.33;;;;;;;;;;5110859;28;20286;-77
2022/10/04 05:36:58;;;;;;;0.40;0.40;;;;;;;;;;5110980;28;20231;-76
2022/10/04 05:39:27;;;;;;;0.50;0.50;;;;;;;;;;5110038;28;20290;-77
2022/10/04 05:42:01;;;;;;;0.40;0.40;;;;;;;;;;5110666;28;20278;-77
2022/10/04 05:44:30;;;;;;;0.70;0.70;;;;;;;;;;5110648;28;20242;-76
2022/10/04 05:46:57;;;;;;;0.50;0.50;;;;;;;;;;5110957;28;20191;-76
2022/10/04 05:49:25;;;;;;;3.10;0.70;;;;;;;;;;5110402;28;20272;-77
2022/10/04 05:51:54;;;;;;;0.50;0.50;;;;;;;;;;5110492;28;20217;-77
2022/10/04 05:54:23;;;;;;;0.50;0.50;;;;;;;;;;5110593;28;20196;-78
2022/10/04 05:57:28;;;;;;;0.50;0.50;;;;;;;;;;5110535;28;20235;-76
2022/10/04 06:00:05;;;;;;;0.40;0.40;;;;;;;;;;5098768;28;20697;-77
2022/10/04 06:02:44;;;;;;;0.37;0.37;;;;;;;;;;5110522;28;20702;-76
2022/10/04 06:05:14;;;;;;;0.40;0.40;;;;;;;;;;5110300;28;20203;-76
2022/10/04 06:07:43;;;;;;;0.70;0.70;;;;;;;;;;5110928;28;20586;-76
2022/10/04 06:10:25;;;;;;;0.90;0.90;;;;;;;;;;5110170;28;20751;-76
2022/10/04 06:12:56;;;;;;;0.70;0.70;;;;;;;;;;5113871;28;20279;-77
2022/10/04 06:15:41;;;;;;;0.80;0.80;;;;;;;;;;5114141;27;20209;-77
2022/10/04 06:18:20;;;;;;;0.50;0.50;;;;;;;;;;5113916;28;20562;-77
2022/10/04 06:21:07;;;;;;;0.60;0.60;;;;;;;;;;5114170;28;20207;-77
2022/10/04 06:23:38;;;;;;;0.30;0.30;;;;;;;;;;5114608;28;20200;-76
2022/10/04 06:26:09;;;;;;;1.93;0.60;;;;;;;;;;5113405;28;20226;-78
2022/10/04 06:28:39;;;;;;;1.37;0.80;;;;;;;;;;5114033;28;20588;-76
2022/10/04 06:31:37;;;;;;;0.50;0.50;;;;;;;;;;5113985;28;20200;-77
2022/10/04 06:34:18;;;;;;;0.63;0.63;;;;;;;;;;5114163;28;20293;-76
2022/10/04 06:37:05;;;;;;;0.70;0.70;;;;;;;;;;5113712;28;20230;-77
2022/10/04 06:39:57;;;;;;;0.67;0.67;;;;;;;;;;5113963;28;20573;-76
2022/10/04 06:42:47;;;;;;;0.60;0.60;;;;;;;;;;5111345;28;20211;-77
2022/10/04 06:45:28;;;;;;;0.70;0.70;;;;;;;;;;5111613;28;20282;-76
2022/10/04 06:48:19;;;;;;;0.60;0.60;;;;;;;;;;5113720;28;20290;-77
2022/10/04 06:50:50;;;;;;;0.53;0.53;;;;;;;;;;5113387;28;20580;-76
2022/10/04 06:53:26;;;;;;;0.50;0.50;;;;;;;;;;5113543;28;20302;-77
2022/10/04 06:56:11;;;;;;;0.70;0.70;;;;;;;;;;5113233;28;20743;-77
2022/10/04 06:59:20;;;;;;;0.57;0.57;;;;;;;;;;5113435;28;20204;-77
2022/10/04 07:01:49;;;;;;;0.60;0.60;;;;;;;;;;5047667;28;20291;-77
2022/10/04 07:04:24;;;;;;;0.67;0.67;;;;;;;;;;5113099;28;20681;-77
2022/10/04 07:09:46;;;;;;;0.40;0.40;;;;;;;;;;5113727;27;20228;-76
2022/10/04 07:12:15;;;;;;;2.10;1.27;;;;;;;;;;5113727;28;20563;-76
2022/10/04 07:14:45;;;;;;;0.53;0.53;;;;;;;;;;5113215;28;20195;-77
2022/10/04 07:17:14;;;;;;;1.13;1.03;;;;;;;;;;5113187;28;20297;-76
2022/10/04 07:19:46;;;;;;;0.60;0.60;;;;;;;;;;5112789;28;20738;-77
2022/10/04 07:22:21;;;;;;;0.70;0.70;;;;;;;;;;5112733;28;20202;-76
2022/10/04 07:25:14;;;;;;;4.23;1.63;;;;;;;;;;5113182;28;20226;-77
2022/10/04 07:27:47;;;;;;;0.60;0.60;;;;;;;;;;5112713;28;20630;-77
2022/10/04 07:30:15;;;;;;;0.70;0.70;;;;;;;;;;5113031;28;20260;-76
2022/10/04 07:32:45;;;;;;;0.30;0.30;;;;;;;;;;5113011;28;20201;-76
2022/10/04 07:35:20;;;;;;;0.87;0.87;;;;;;;;;;5112612;28;20286;-76
2022/10/04 07:37:50;;;;;;;0.70;0.70;;;;;;;;;;5112996;28;20651;-77
2022/10/04 07:40:22;;;;;;;0.67;0.67;;;;;;;;;;5112183;28;20203;-76
2022/10/04 07:42:53;;;;;;;0.57;0.57;;;;;;;;;;5112891;28;20202;-76
2022/10/04 07:45:23;;;;;;;0.40;0.40;;;;;;;;;;5112618;28;20205;-76
2022/10/04 07:47:50;;;;;;;0.60;0.60;;;;;;;;;;5112795;28;20210;-76
2022/10/04 07:50:23;;;;;;;0.60;0.60;;;;;;;;;;5112414;28;20196;-76
2022/10/04 07:52:53;;;;;;;0.63;0.63;;;;;;;;;;5112100;28;20206;-77
2022/10/04 07:55:37;;;;;;;0.33;0.33;;;;;;;;;;5112606;28;20199;-76
2022/10/04 07:58:20;;;;;;;0.60;0.60;;;;;;;;;;5112663;28;20234;-76
2022/10/04 08:00:52;;;;;;;0.40;0.40;;;;;;;;;;5111999;28;20639;-76
2022/10/04 08:03:35;;;;;;;6.80;1.00;;;;;;;;;;5112094;28;20210;-76
2022/10/04 08:06:10;;;;;;;0.50;0.50;;;;;;;;;;5112245;28;20232;-76
2022/10/04 08:09:00;;;;;;;0.70;0.70;;;;;;;;;;5112197;28;20692;-76
2022/10/04 08:11:36;;;;;;;0.50;0.50;;;;;;;;;;5111711;28;20187;-77
2022/10/04 08:14:09;;;;;;;0.60;0.60;;;;;;;;;;5111999;28;20207;-77
2022/10/04 08:16:37;;;;;;;0.53;0.53;;;;;;;;;;5098085;28;20223;-77
2022/10/04 08:19:25;;;;;;;0.67;0.67;;;;;;;;;;5111705;28;20199;-76
2022/10/04 08:21:59;;;;;;;0.60;0.60;;;;;;;;;;5112002;28;20196;-77
2022/10/04 08:24:31;;;;;;;0.70;0.70;;;;;;;;;;5111595;28;20226;-76
2022/10/04 08:27:12;;;;;;;0.93;0.93;;;;;;;;;;5111671;28;20214;-77
2022/10/04 08:30:08;;;;;;;0.50;0.50;;;;;;;;;;5111312;28;20625;-75
2022/10/04 08:33:00;;;;;;;0.53;0.53;;;;;;;;;;5111444;27;20210;-77
2022/10/04 08:35:34;;;;;;;0.60;0.60;;;;;;;;;;5098350;28;20203;-76
2022/10/04 08:38:13;;;;;;;0.67;0.67;;;;;;;;;;5111649;27;20313;-78
2022/10/04 08:41:14;;;;;;;0.70;0.70;;;;;;;;;;5110909;28;20721;-76
2022/10/04 08:44:01;;;;;;;0.70;0.70;;;;;;;;;;5111262;28;20197;-76
2022/10/04 08:46:42;;;;;;;0.50;0.50;;;;;;;;;;5111375;28;20771;-77
2022/10/04 08:49:42;;;;;;;0.60;0.60;;;;;;;;;;5110837;28;20599;-77
2022/10/04 08:52:36;;;;;;;0.40;0.40;;;;;;;;;;5092331;28;20588;-78
2022/10/04 08:55:33;;;;;;;0.40;0.40;;;;;;;;;;5111377;28;20294;-77
2022/10/04 08:58:22;;;;;;;0.70;0.70;;;;;;;;;;5110920;28;20653;-75
2022/10/04 09:01:05;;;;;;;0.50;0.50;;;;;;;;;;5110892;28;20682;-76
2022/10/04 09:04:05;;;;;;;0.80;0.80;;;;;;;;;;5111204;28;20694;-80
2022/10/04 09:06:38;;;;;;;0.70;0.70;;;;;;;;;;5096646;28;20743;-76
2022/10/04 09:09:49;;;;;;;0.43;0.43;;;;;;;;;;5110649;28;20199;-76
2022/10/04 09:12:49;;;;;;;1.10;1.10;;;;;;;;;;5111118;28;20208;-76
2022/10/04 09:15:52;;;;;;;0.73;0.73;;;;;;;;;;5111021;28;20201;-76
2022/10/04 09:18:33;;;;;;;1.10;1.10;;;;;;;;;;5096786;28;20236;-78
2022/10/04 09:21:08;;;;;;;2.63;1.90;;;;;;;;;;5111043;28;20200;-76
2022/10/04 09:24:12;;;;;;;0.50;0.50;;;;;;;;;;5111017;28;20210;-76
2022/10/04 09:26:44;;;;;;;0.60;0.60;;;;;;;;;;5083884;28;20258;-77
2022/10/04 09:29:44;;;;;;;0.67;0.67;;;;;;;;;;5110917;28;20261;-76
2022/10/04 09:32:38;;;;;;;0.50;0.50;;;;;;;;;;5099609;28;20249;-76
2022/10/04 09:35:17;;;;;;;0.53;0.53;;;;;;;;;;5110701;28;20204;-76
2022/10/04 09:38:01;;;;;;;0.40;0.40;;;;;;;;;;5110791;28;20226;-76
2022/10/04 09:40:50;;;;;;;1.90;0.67;;;;;;;;;;5110819;28;20230;-77
2022/10/04 09:43:59;;;;;;;0.70;0.70;;;;;;;;;;5110442;28;20206;-76
2022/10/04 09:47:00;;;;;;;0.70;0.70;;;;;;;;;;5100732;28;20203;-76
2022/10/04 09:49:49;;;;;;;0.60;0.60;;;;;;;;;;5112147;27;20204;-77
2022/10/04 09:52:28;;;;;;;0.60;0.60;;;;;;;;;;5114761;28;20229;-77
2022/10/04 09:55:13;;;;;;;0.70;0.70;;;;;;;;;;5114688;28;20198;-76
2022/10/04 09:58:28;;;;;;;0.60;0.60;;;;;;;;;;5102757;28;20230;-76
2022/10/04 10:01:00;;;;;;;0.43;0.43;;;;;;;;;;5031574;28;20205;-76
2022/10/04 10:03:40;;;;;;;0.60;0.60;;;;;;;;;;5032069;28;20642;-77
2022/10/04 10:06:24;;;;;;;0.57;0.57;;;;;;;;;;5086419;28;20285;-78
2022/10/04 10:09:02;;;;;;;0.50;0.50;;;;;;;;;;5114766;28;20210;-76
2022/10/04 10:14:59;;;;;;;0.70;0.70;;;;;;;;;;5114261;28;20206;-76
2022/10/04 10:17:36;;;;;;;0.43;0.43;;;;;;;;;;5114785;28;20313;-77
2022/10/04 10:20:25;;;;;;;0.50;0.50;;;;;;;;;;5100602;28;20560;-76
2022/10/04 10:23:15;;;;;;;0.67;0.67;;;;;;;;;;5113657;27;20206;-77
2022/10/04 10:25:52;;;;;;;0.80;0.80;;;;;;;;;;5114513;28;20231;-75
2022/10/04 10:28:46;;;;;;;0.70;0.70;;;;;;;;;;5114313;28;20514;-76
2022/10/04 10:31:30;;;;;;;0.60;0.60;;;;;;;;;;5111955;28;20265;-75
2022/10/04 10:34:19;;;;;;;0.73;0.73;;;;;;;;;;5113952;28;20195;-77
2022/10/04 10:36:58;;;;;;;0.80;0.80;;;;;;;;;;5113801;28;20318;-75
2022/10/04 10:40:00;;;;;;;0.60;0.60;;;;;;;;;;5113542;28;20207;-76
2022/10/04 10:42:56;;;;;;;0.67;0.67;;;;;;;;;;5114314;28;20242;-76
2022/10/04 10:45:50;;;;;;;0.70;0.70;;;;;;;;;;5113358;28;20203;-75
2022/10/04 10:48:30;;;;;;;0.33;0.33;;;;;;;;;;5086072;28;20208;-76
2022/10/04 10:51:10;;;;;;;0.70;0.70;;;;;;;;;;5113832;28;20267;-76
2022/10/04 10:54:10;;;;;;;0.40;0.40;;;;;;;;;;5113689;28;20254;-75
2022/10/04 10:56:44;;;;;;;0.43;0.43;;;;;;;;;;5112857;28;20211;-76
2022/10/04 10:59:38;;;;;;;0.60;0.60;;;;;;;;;;5113556;28;20204;-75
2022/10/04 11:02:38;;;;;;;0.60;0.60;;;;;;;;;;5113826;28;20262;-76
2022/10/04 11:05:37;;;;;;;0.70;0.70;;;;;;;;;;5100234;28;20603;-75
2022/10/04 11:08:16;;;;;;;1.10;1.10;;;;;;;;;;5065539;28;20204;-75
2022/10/04 11:11:12;;;;;;;0.70;0.70;;;;;;;;;;5113019;28;20206;-76
2022/10/04 11:14:12;;;;;;;0.50;0.50;;;;;;;;;;5104012;27;20233;-76
2022/10/04 11:17:02;;;;;;;0.53;0.53;;;;;;;;;;5090051;28;20627;-76
2022/10/04 11:20:09;;;;;;;0.47;0.47;;;;;;;;;;5112859;27;20217;-76
2022/10/04 11:23:25;;;;;;;0.50;0.50;;;;;;;;;;5111638;28;20204;-76
2022/10/04 11:26:17;;;;;;;0.50;0.50;;;;;;;;;;5069993;28;20719;-76
2022/10/04 11:28:46;;;;;;;0.33;0.33;;;;;;;;;;5100502;28;20206;-77
2022/10/04 11:31:39;;;;;;;0.60;0.60;;;;;;;;;;5113004;28;20211;-76
2022/10/04 11:34:37;;;;;;;0.70;0.70;;;;;;;;;;5112636;28;20234;-77
2022/10/04 11:37:08;;;;;;;0.40;0.40;;;;;;;;;;5098940;28;20276;-76
2022/10/04 11:39:45;;;;;;;0.50;0.50;;;;;;;;;;5112827;28;20272;-76
2022/10/04 11:42:22;;;;;;;3.93;1.60;;;;;;;;;;5112416;28;20609;-76
2022/10/04 11:45:05;;;;;;;0.50;0.50;;;;;;;;;;5112636;28;20257;-77
2022/10/04 11:47:41;;;;;;;0.60;0.60;;;;;;;;;;5112399;28;20633;-76
2022/10/04 11:50:38;;;;;;;0.60;0.60;;;;;;;;;;5112364;27;20665;-76
2022/10/04 11:53:38;;;;;;;0.57;0.57;;;;;;;;;;5104012;28;20294;-76
2022/10/04 11:56:28;;;;;;;0.50;0.50;;;;;;;;;;5112679;28;20286;-76
2022/10/04 11:59:07;;;;;;;0.60;0.60;;;;;;;;;;5109581;27;20237;-76
2022/10/04 12:02:01;;;;;;;1.30;0.50;;;;;;;;;;5112437;28;20635;-76
2022/10/04 12:04:52;;;;;;;0.50;0.50;;;;;;;;;;5111983;28;20195;-76
2022/10/04 12:07:27;;;;;;;0.67;0.67;;;;;;;;;;5112091;28;20772;-76
2022/10/04 12:10:01;;;;;;;0.60;0.60;;;;;;;;;;5110826;28;20202;-75
2022/10/04 12:12:50;;;;;;;0.70;0.70;;;;;;;;;;5112328;28;20207;-76
2022/10/04 12:15:43;;;;;;;0.50;0.50;;;;;;;;;;5111963;28;20208;-76
2022/10/04 12:18:55;;;;;;;0.40;0.40;;;;;;;;;;5112229;28;20223;-77
2022/10/04 12:21:43;;;;;;;1.03;0.77;;;;;;;;;;5111613;28;20578;-75
2022/10/04 12:24:38;;;;;;;0.40;0.40;;;;;;;;;;5111969;28;20226;-76
2022/10/04 12:27:22;;;;;;;0.40;0.40;;;;;;;;;;5098385;28;20222;-77
2022/10/04 12:30:11;;;;;;;0.30;0.30;;;;;;;;;;5111175;28;20252;-76
2022/10/04 12:32:45;;;;;;;0.47;0.47;;;;;;;;;;5112013;28;20640;-76
2022/10/04 12:35:22;;;;;;;0.40;0.40;;;;;;;;;;5111415;28;20207;-76
2022/10/04 12:38:20;;;;;;;0.40;0.40;;;;;;;;;;5111539;28;20227;-76
2022/10/04 12:40:49;;;;;;;0.40;0.40;;;;;;;;;;5101037;28;20261;-75
2022/10/04 12:43:21;;;;;;;0.70;0.47;;;;;;;;;;5111595;28;20195;-76
2022/10/04 12:45:55;;;;;;;0.50;0.50;;;;;;;;;;5111607;28;20226;-76
2022/10/04 12:48:40;;;;;;;0.40;0.40;;;;;;;;;;5111453;28;20204;-76
2022/10/04 12:51:19;;;;;;;0.80;0.80;;;;;;;;;;5111180;28;20207;-77
2022/10/04 12:53:51;;;;;;;0.60;0.60;;;;;;;;;;5111445;28;20199;-76
2022/10/04 12:56:32;;;;;;;0.53;0.53;;;;;;;;;;5111316;28;20273;-76
2022/10/04 12:59:11;;;;;;;0.43;0.43;;;;;;;;;;5110769;28;20227;-76
2022/10/04 13:01:46;;;;;;;0.40;0.40;;;;;;;;;;5111372;28;20582;-77
2022/10/04 13:04:25;;;;;;;0.50;0.50;;;;;;;;;;5111037;28;20636;-77
2022/10/04 13:07:04;;;;;;;0.60;0.60;;;;;;;;;;5111250;28;20207;-76
2022/10/04 13:09:40;;;;;;;0.50;0.50;;;;;;;;;;5110670;28;20203;-77
2022/10/04 13:12:21;;;;;;;0.77;0.60;;;;;;;;;;5111072;28;20206;-76
2022/10/04 13:15:02;;;;;;;0.50;0.50;;;;;;;;;;5111195;28;20195;-76
2022/10/04 13:17:40;;;;;;;0.50;0.50;;;;;;;;;;5111069;28;20279;-75
2022/10/04 13:20:30;;;;;;;0.83;0.83;;;;;;;;;;5110244;28;20230;-76
2022/10/04 13:23:01;;;;;;;0.40;0.40;;;;;;;;;;5110931;28;20207;-76
2022/10/04 13:25:39;;;;;;;0.50;0.50;;;;;;;;;;5110748;28;20227;-75
2022/10/04 13:28:21;;;;;;;0.30;0.30;;;;;;;;;;5111027;28;20203;-76
2022/10/04 13:30:51;;;;;;;0.50;0.50;;;;;;;;;;5111028;28;20207;-76
2022/10/04 13:33:25;;;;;;;0.40;0.40;;;;;;;;;;5111032;28;20192;-76
2022/10/04 13:35:58;;;;;;;0.43;0.43;;;;;;;;;;5110896;28;20281;-76
2022/10/04 13:39:00;;;;;;;2.43;1.63;;;;;;;;;;5109044;28;20221;-76
2022/10/04 13:41:36;;;;;;;1.33;0.70;;;;;;;;;;5110557;28;20211;-76
2022/10/04 13:44:23;;;;;;;0.50;0.50;;;;;;;;;;5110729;28;20677;-76
2022/10/04 13:47:04;;;;;;;0.40;0.40;;;;;;;;;;5110507;28;20207;-75
2022/10/04 13:49:41;;;;;;;0.67;0.67;;;;;;;;;;5110681;28;20286;-75
2022/10/04 13:58:17;;;;;;;0.53;0.53;;;;;;;;;;5110807;28;20668;-75
2022/10/04 14:01:01;;;;;;;0.50;0.50;;;;;;;;;;5110105;28;20199;-76
2022/10/04 14:03:46;;;;;;;0.40;0.40;;;;;;;;;;5110684;28;20207;-76
2022/10/04 14:06:46;;;;;;;0.50;0.50;;;;;;;;;;5110678;28;20286;-76
2022/10/04 14:09:42;;;;;;;0.50;0.50;;;;;;;;;;5110356;28;20248;-77
2022/10/04 14:12:43;;;;;;;0.40;0.40;;;;;;;;;;5110337;28;20199;-77
2022/10/04 14:15:49;;;;;;;0.47;0.47;;;;;;;;;;5110377;28;20207;-77
2022/10/04 14:18:55;;;;;;;0.30;0.30;;;;;;;;;;5095978;28;20310;-77
2022/10/04 14:21:54;;;;;;;0.50;0.50;;;;;;;;;;5110706;28;20218;-77
2022/10/04 14:24:52;;;;;;;0.43;0.43;;;;;;;;;;5110186;28;20231;-77
2022/10/04 14:27:42;;;;;;;0.70;0.70;;;;;;;;;;5110503;28;20278;-77
2022/10/04 14:30:22;;;;;;;0.53;0.53;;;;;;;;;;5110234;28;20199;-77
2022/10/04 14:33:27;;;;;;;0.50;0.50;;;;;;;;;;5112203;28;20290;-76
2022/10/04 14:36:22;;;;;;;0.47;0.47;;;;;;;;;;5108927;27;20211;-76
2022/10/04 14:39:05;;;;;;;0.63;0.63;;;;;;;;;;5100709;28;20327;-77
2022/10/04 14:42:07;;;;;;;0.50;0.50;;;;;;;;;;5113550;28;20264;-76
2022/10/04 14:44:50;;;;;;;0.50;0.50;;;;;;;;;;5050643;28;20208;-76
2022/10/04 14:47:33;;;;;;;0.60;0.60;;;;;;;;;;5100492;28;20202;-76
2022/10/04 14:50:17;;;;;;;0.53;0.53;;;;;;;;;;5113457;28;20210;-77
2022/10/04 14:52:53;;;;;;;0.40;0.40;;;;;;;;;;5114103;28;20280;-77
2022/10/04 14:55:51;;;;;;;0.40;0.40;;;;;;;;;;5113158;28;20199;-77
2022/10/04 14:58:28;;;;;;;0.33;0.33;;;;;;;;;;5113465;28;20712;-77
2022/10/04 15:01:19;;;;;;;0.53;0.53;;;;;;;;;;5113102;28;20357;-77
2022/10/04 15:04:00;;;;;;;0.30;0.30;;;;;;;;;;5108030;27;20206;-77
2022/10/04 15:06:35;;;;;;;0.53;0.53;;;;;;;;;;5099701;28;20692;-77
2022/10/04 15:09:39;;;;;;;0.50;0.50;;;;;;;;;;5113123;28;20297;-77
2022/10/04 15:12:24;;;;;;;0.70;0.70;;;;;;;;;;5104455;28;20295;-77
2022/10/04 15:15:16;;;;;;;0.50;0.50;;;;;;;;;;5113014;28;20640;-77
2022/10/04 15:17:56;;;;;;;0.67;0.67;;;;;;;;;;5113036;28;20207;-77
2022/10/04 15:20:26;;;;;;;0.70;0.70;;;;;;;;;;5113355;28;20203;-77
2022/10/04 15:22:56;;;;;;;0.93;0.93;;;;;;;;;;5112629;28;20206;-77
2022/10/04 15:25:41;;;;;;;0.70;0.70;;;;;;;;;;5112934;28;20265;-77
2022/10/04 15:28:26;;;;;;;1.30;1.30;;;;;;;;;;5112953;28;20200;-77
2022/10/04 15:30:57;;;;;;;0.90;0.90;;;;;;;;;;5112776;28;20203;-77
2022/10/04 15:33:32;;;;;;;0.70;0.70;;;;;;;;;;5112582;28;20199;-77
2022/10/04 15:36:27;;;;;;;0.43;0.43;;;;;;;;;;5113040;28;20222;-78
2022/10/04 15:39:01;;;;;;;1.10;0.87;;;;;;;;;;5098695;28;20215;-77
2022/10/04 15:41:32;;;;;;;1.33;1.27;;;;;;;;;;5112814;28;20761;-78
2022/10/04 15:44:28;;;;;;;1.47;1.10;;;;;;;;;;5112052;28;20196;-77
2022/10/04 15:47:09;;;;;;;0.70;0.70;;;;;;;;;;5112707;28;20199;-77
2022/10/04 15:49:51;;;;;;;0.50;0.50;;;;;;;;;;5113020;28;20199;-77
2022/10/04 15:52:48;;;;;;;0.60;0.60;;;;;;;;;;5098156;28;20203;-77
2022/10/04 15:55:29;;;;;;;0.77;0.70;;;;;;;;;;5112431;28;20200;-77
2022/10/04 15:58:25;;;;;;;0.47;0.47;;;;;;;;;;5112489;28;20191;-77
2022/10/04 16:01:15;;;;;;;0.50;0.50;;;;;;;;;;5111985;28;20289;-77
2022/10/04 16:03:48;;;;;;;0.60;0.60;;;;;;;;;;5107112;27;20757;-77
2022/10/04 16:06:22;;;;;;;0.40;0.40;;;;;;;;;;5112542;28;20199;-76
2022/10/04 16:09:12;;;;;;;0.40;0.40;;;;;;;;;;5112122;28;20234;-77
2022/10/04 16:12:02;;;;;;;0.57;0.57;;;;;;;;;;5112675;28;20226;-76
2022/10/04 16:14:55;;;;;;;0.77;0.77;;;;;;;;;;5105999;28;20262;-76